createdAt,value
2017-09-04T00:02:25.046Z,10.50
2017-09-04T00:04:54.370Z,10.50
2017-09-04T00:07:23.701Z,10.40
2017-09-04T00:09:53.086Z,10.40
2017-09-04T00:12:22.358Z,10.40
2017-09-04T00:14:51.627Z,10.40
2017-09-04T00:17:20.875Z,10.40
2017-09-04T00:19:50.226Z,10.40
2017-09-04T00:22:19.478Z,10.30
2017-09-04T00:24:48.788Z,10.30
2017-09-04T00:27:18.067Z,10.30
2017-09-04T00:29:47.324Z,10.30
2017-09-04T00:32:16.626Z,10.30
2017-09-04T00:34:45.893Z,10.30
2017-09-04T00:37:15.323Z,10.30
2017-09-04T00:39:45.201Z,10.20
2017-09-04T00:42:14.445Z,10.30
2017-09-04T00:44:43.743Z,10.20
2017-09-04T00:47:13.314Z,10.20
2017-09-04T00:49:42.553Z,10.20
2017-09-04T00:52:11.793Z,10.30
2017-09-04T00:54:41.061Z,10.20
2017-09-04T00:57:10.325Z,10.20
2017-09-04T00:59:40.345Z,10.30
2017-09-04T01:02:09.745Z,10.20
2017-09-04T01:04:39.050Z,10.20
2017-09-04T01:07:08.341Z,10.20
2017-09-04T01:09:37.652Z,10.20
2017-09-04T01:12:07.163Z,10.10
2017-09-04T01:14:36.405Z,10.10
2017-09-04T01:17:05.657Z,10.10
2017-09-04T01:19:35.067Z,10.10
2017-09-04T01:22:04.375Z,10.10
2017-09-04T01:24:33.637Z,10.10
2017-09-04T01:27:02.895Z,10.10
2017-09-04T01:29:32.174Z,10.10
2017-09-04T01:32:01.432Z,10.00
2017-09-04T01:34:30.700Z,10.00
2017-09-04T01:36:59.983Z,10.00
2017-09-04T01:39:29.217Z,10.00
2017-09-04T01:41:58.470Z,10.00
2017-09-04T01:44:27.872Z,10.00
2017-09-04T01:46:57.114Z,10.00
2017-09-04T01:49:26.375Z,10.00
2017-09-04T01:51:55.634Z,10.00
2017-09-04T01:54:24.910Z,10.00
2017-09-04T01:56:54.158Z,9.90
2017-09-04T01:59:23.473Z,9.90
2017-09-04T02:01:52.725Z,9.90
2017-09-04T02:04:22.006Z,9.90
2017-09-04T02:06:51.394Z,9.90
2017-09-04T02:09:21.433Z,9.90
2017-09-04T02:11:51.009Z,9.90
2017-09-04T02:14:20.305Z,9.90
2017-09-04T02:16:49.613Z,9.90
2017-09-04T02:19:19.566Z,9.90
2017-09-04T02:21:48.809Z,9.90
2017-09-04T02:24:18.069Z,9.90
2017-09-04T02:26:47.321Z,9.90
2017-09-04T02:29:16.579Z,9.90
2017-09-04T02:31:46.066Z,9.90
2017-09-04T02:34:15.286Z,9.80
2017-09-04T02:36:44.662Z,9.80
2017-09-04T02:39:13.949Z,9.80
2017-09-04T02:41:43.250Z,9.80
2017-09-04T02:44:13.353Z,9.70
2017-09-04T02:46:42.597Z,9.60
2017-09-04T02:49:11.894Z,9.70
2017-09-04T02:51:41.177Z,9.60
2017-09-04T02:54:10.441Z,9.70
2017-09-04T02:56:39.708Z,9.70
2017-09-04T02:59:08.973Z,9.70
2017-09-04T03:01:38.467Z,9.70
2017-09-04T03:04:07.709Z,9.70
2017-09-04T03:06:36.985Z,9.70
2017-09-04T03:09:06.226Z,9.60
2017-09-04T03:11:35.503Z,9.60
2017-09-04T03:14:04.766Z,9.60
2017-09-04T03:16:34.004Z,9.60
2017-09-04T03:19:03.584Z,9.60
2017-09-04T03:21:32.960Z,9.50
2017-09-04T03:24:02.205Z,9.50
2017-09-04T03:26:32.235Z,9.50
2017-09-04T03:29:01.482Z,9.50
2017-09-04T03:31:30.738Z,9.50
2017-09-04T03:34:00.002Z,9.50
2017-09-04T03:36:29.245Z,9.50
2017-09-04T03:38:58.509Z,9.50
2017-09-04T03:41:28.558Z,9.40
2017-09-04T03:43:57.858Z,9.40
2017-09-04T03:46:27.133Z,9.40
2017-09-04T03:48:56.390Z,9.40
2017-09-04T03:51:25.647Z,9.40
2017-09-04T03:53:54.883Z,9.30
2017-09-04T03:56:24.134Z,9.30
2017-09-04T03:58:53.381Z,9.30
2017-09-04T04:01:22.641Z,9.30
2017-09-04T04:03:52.022Z,9.30
2017-09-04T04:06:21.366Z,9.20
2017-09-04T04:08:50.614Z,9.30
2017-09-04T04:11:19.933Z,9.30
2017-09-04T04:13:49.196Z,9.30
2017-09-04T04:16:18.445Z,9.30
2017-09-04T04:18:48.942Z,9.30
2017-09-04T04:21:18.181Z,9.20
2017-09-04T04:23:47.450Z,9.30
2017-09-04T04:26:16.709Z,9.20
2017-09-04T04:28:46.817Z,9.20
2017-09-04T04:31:16.223Z,9.20
2017-09-04T04:33:45.510Z,9.20
2017-09-04T04:36:14.774Z,9.20
2017-09-04T04:38:44.013Z,9.20
2017-09-04T04:41:13.441Z,9.10
2017-09-04T04:43:42.698Z,9.20
2017-09-04T04:46:12.013Z,9.20
2017-09-04T04:48:42.129Z,9.20
2017-09-04T04:51:11.593Z,9.20
2017-09-04T04:53:41.038Z,9.20
2017-09-04T04:56:10.282Z,9.20
2017-09-04T04:58:39.742Z,9.20
2017-09-04T05:01:08.985Z,9.30
2017-09-04T05:03:38.241Z,9.30
2017-09-04T05:06:07.515Z,9.40
2017-09-04T05:08:36.756Z,9.50
2017-09-04T05:11:06.042Z,9.50
2017-09-04T05:13:35.301Z,9.60
2017-09-04T05:16:04.537Z,9.70
2017-09-04T05:18:33.836Z,9.80
2017-09-04T05:21:03.085Z,10.00
2017-09-04T05:23:32.350Z,10.10
2017-09-04T05:26:01.594Z,10.30
2017-09-04T05:28:30.940Z,10.40
2017-09-04T05:31:00.223Z,10.50
2017-09-04T05:33:29.466Z,10.60
2017-09-04T05:35:58.730Z,10.70
2017-09-04T05:38:27.986Z,10.90
2017-09-04T05:40:57.287Z,11.00
2017-09-04T05:43:26.527Z,11.20
2017-09-04T05:45:55.777Z,11.40
2017-09-04T05:48:25.051Z,11.60
2017-09-04T05:50:54.492Z,11.80
2017-09-04T05:53:23.742Z,12.00
2017-09-04T05:55:53.009Z,12.20
2017-09-04T05:58:22.273Z,12.20
2017-09-04T06:00:51.535Z,12.40
2017-09-04T06:03:20.793Z,12.60
2017-09-04T06:05:50.051Z,12.80
2017-09-04T06:08:19.318Z,12.90
2017-09-04T06:10:48.594Z,13.10
2017-09-04T06:13:22.615Z,13.30
2017-09-04T06:15:51.974Z,13.70
2017-09-04T06:18:21.257Z,14.00
2017-09-04T06:20:50.714Z,15.10
2017-09-04T06:23:20.111Z,17.20
2017-09-04T06:25:49.376Z,19.40
2017-09-04T06:28:18.611Z,21.20
2017-09-04T06:30:47.874Z,22.80
2017-09-04T06:33:17.153Z,24.30
2017-09-04T06:35:46.418Z,25.80
2017-09-04T06:38:15.714Z,27.20
2017-09-04T06:40:45.030Z,28.10
2017-09-04T06:43:14.318Z,28.20
2017-09-04T06:45:43.636Z,27.60
2017-09-04T06:48:13.171Z,26.70
2017-09-04T06:50:42.431Z,25.60
2017-09-04T06:53:11.761Z,24.90
2017-09-04T06:55:41.177Z,23.90
2017-09-04T06:58:10.546Z,23.30
2017-09-04T07:00:40.620Z,23.00
2017-09-04T07:03:09.863Z,23.40
2017-09-04T07:05:39.114Z,23.90
2017-09-04T07:08:08.384Z,24.70
2017-09-04T07:10:37.869Z,24.90
2017-09-04T07:13:08.817Z,25.40
2017-09-04T07:15:38.121Z,25.40
2017-09-04T07:18:07.747Z,25.40
2017-09-04T07:20:36.989Z,25.10
2017-09-04T07:23:06.256Z,24.30
2017-09-04T07:25:35.499Z,23.50
2017-09-04T07:28:04.769Z,23.00
2017-09-04T07:30:34.097Z,22.70
2017-09-04T07:33:03.585Z,22.20
2017-09-04T07:35:32.847Z,22.10
2017-09-04T07:38:02.246Z,22.00
2017-09-04T07:40:31.546Z,22.20
2017-09-04T07:43:00.801Z,22.90
2017-09-04T07:45:30.047Z,24.20
2017-09-04T07:47:59.331Z,25.20
2017-09-04T07:50:28.616Z,25.90
2017-09-04T07:52:57.990Z,26.40
2017-09-04T07:55:27.242Z,27.40
2017-09-04T07:57:56.532Z,28.60
2017-09-04T08:00:25.949Z,30.30
2017-09-04T08:02:55.217Z,32.30
2017-09-04T08:05:24.477Z,33.40
2017-09-04T08:07:53.949Z,34.40
2017-09-04T08:10:23.353Z,35.20
2017-09-04T08:12:52.613Z,36.10
2017-09-04T08:15:21.853Z,36.60
2017-09-04T08:17:51.133Z,36.60
2017-09-04T08:20:20.374Z,36.90
2017-09-04T08:22:49.633Z,36.90
2017-09-04T08:25:18.899Z,37.20
2017-09-04T08:27:48.167Z,37.50
2017-09-04T08:30:17.434Z,37.20
2017-09-04T08:32:46.775Z,37.10
2017-09-04T08:35:16.037Z,37.10
2017-09-04T08:37:45.320Z,36.60
2017-09-04T08:40:14.617Z,35.30
2017-09-04T08:42:43.883Z,33.70
2017-09-04T08:45:13.209Z,33.00
2017-09-04T08:47:42.794Z,33.30
2017-09-04T08:50:12.084Z,33.50
2017-09-04T08:52:41.328Z,33.80
2017-09-04T08:55:10.586Z,33.80
2017-09-04T08:57:40.303Z,34.40
2017-09-04T09:00:09.559Z,34.60
2017-09-04T09:02:38.818Z,34.70
2017-09-04T09:05:08.196Z,35.60
2017-09-04T09:07:37.462Z,36.20
2017-09-04T09:10:06.732Z,36.00
2017-09-04T09:12:35.998Z,36.40
2017-09-04T09:15:05.272Z,36.30
2017-09-04T09:17:34.804Z,36.10
2017-09-04T09:20:04.053Z,34.70
2017-09-04T09:22:33.325Z,34.20
2017-09-04T09:25:03.046Z,34.00
2017-09-04T09:27:32.316Z,34.40
2017-09-04T09:30:01.578Z,34.70
2017-09-04T09:32:30.802Z,34.50
2017-09-04T09:35:00.139Z,34.40
2017-09-04T09:37:29.403Z,33.60
2017-09-04T09:39:58.733Z,34.20
2017-09-04T09:42:28.852Z,36.00
2017-09-04T09:44:58.370Z,36.00
2017-09-04T09:47:27.849Z,37.00
2017-09-04T09:49:57.202Z,36.50
2017-09-04T09:52:26.484Z,36.50
2017-09-04T09:54:55.929Z,36.80
2017-09-04T09:57:25.190Z,36.70
2017-09-04T09:59:54.437Z,35.80
2017-09-04T10:02:23.706Z,35.60
2017-09-04T10:04:52.955Z,35.40
2017-09-04T10:07:22.189Z,35.80
2017-09-04T10:09:51.467Z,36.60
2017-09-04T10:12:20.717Z,35.80
2017-09-04T10:14:50.261Z,35.70
2017-09-04T10:17:19.482Z,36.60
2017-09-04T10:19:48.758Z,36.60
2017-09-04T10:22:17.994Z,36.50
2017-09-04T10:24:47.235Z,36.70
2017-09-04T10:27:16.503Z,36.70
2017-09-04T10:29:45.768Z,37.00
2017-09-04T10:32:15.006Z,36.30
2017-09-04T10:34:44.254Z,36.20
2017-09-04T10:37:13.511Z,36.60
2017-09-04T10:39:42.765Z,36.00
2017-09-04T10:42:12.123Z,36.00
2017-09-04T10:44:41.377Z,36.30
2017-09-04T10:47:10.710Z,36.70
2017-09-04T10:49:40.185Z,36.40
2017-09-04T10:52:09.451Z,36.50
2017-09-04T10:54:38.685Z,36.30
2017-09-04T10:57:07.939Z,36.20
2017-09-04T10:59:37.207Z,36.10
2017-09-04T11:02:06.594Z,35.00
2017-09-04T11:04:35.828Z,33.20
2017-09-04T11:07:05.102Z,32.30
2017-09-04T11:09:38.187Z,31.40
2017-09-04T11:12:07.436Z,30.60
2017-09-04T11:14:36.884Z,29.40
2017-09-04T11:17:06.154Z,28.70
2017-09-04T11:19:35.543Z,28.60
2017-09-04T11:22:04.798Z,28.90
2017-09-04T11:24:34.850Z,29.30
2017-09-04T11:27:04.096Z,29.30
2017-09-04T11:29:33.363Z,30.00
2017-09-04T11:32:02.679Z,30.00
2017-09-04T11:34:31.960Z,29.50
2017-09-04T11:37:01.282Z,29.60
2017-09-04T11:39:30.586Z,30.20
2017-09-04T11:41:59.831Z,30.80
2017-09-04T11:44:29.089Z,30.70
2017-09-04T11:46:59.382Z,30.60
2017-09-04T11:49:28.757Z,29.50
2017-09-04T11:51:58.011Z,28.30
2017-09-04T11:54:27.263Z,27.30
2017-09-04T11:56:56.491Z,26.70
2017-09-04T11:59:25.754Z,26.50
2017-09-04T12:01:55.021Z,26.40
2017-09-04T12:04:24.252Z,25.90
2017-09-04T12:06:53.518Z,25.40
2017-09-04T12:09:22.760Z,25.00
2017-09-04T12:11:52.021Z,25.10
2017-09-04T12:14:21.261Z,24.90
2017-09-04T12:16:50.529Z,24.90
2017-09-04T12:19:19.789Z,25.00
2017-09-04T12:21:49.225Z,24.70
2017-09-04T12:24:18.474Z,24.40
2017-09-04T12:26:47.718Z,24.30
2017-09-04T12:29:16.977Z,24.20
2017-09-04T12:31:47.010Z,23.90
2017-09-04T12:34:16.281Z,23.80
2017-09-04T12:36:45.524Z,23.70
2017-09-04T12:39:14.784Z,23.70
2017-09-04T12:44:19.323Z,23.60
2017-09-04T12:46:48.582Z,23.50
2017-09-04T12:49:17.981Z,23.60
2017-09-04T12:51:47.262Z,23.80
2017-09-04T12:54:17.101Z,24.10
2017-09-04T12:56:46.627Z,24.40
2017-09-04T12:59:15.902Z,24.40
2017-09-04T13:01:45.238Z,24.30
2017-09-04T13:04:14.483Z,24.20
2017-09-04T13:06:43.769Z,24.10
2017-09-04T13:09:13.017Z,24.20
2017-09-04T13:11:58.089Z,24.10
2017-09-04T13:14:32.914Z,23.90
2017-09-04T13:17:07.414Z,23.90
2017-09-04T13:19:42.078Z,23.70
2017-09-04T13:22:16.906Z,23.60
2017-09-04T13:24:51.744Z,23.50
2017-09-04T13:27:26.583Z,23.60
2017-09-04T13:29:58.537Z,23.70
2017-09-04T13:35:43.531Z,24.10
2017-09-04T13:38:18.245Z,24.10
2017-09-04T13:40:53.129Z,23.90
2017-09-04T13:46:28.867Z,23.80
2017-09-04T13:49:03.822Z,23.70
2017-09-04T13:51:38.690Z,23.40
2017-09-04T13:57:25.565Z,23.10
2017-09-04T14:00:00.390Z,22.80
2017-09-04T14:02:35.789Z,22.60
2017-09-04T14:08:26.758Z,22.60
2017-09-04T14:11:00.414Z,22.80
2017-09-04T14:13:29.658Z,23.10
2017-09-04T14:16:04.206Z,23.20
2017-09-04T14:18:33.578Z,23.20
2017-09-04T14:21:04.100Z,23.30
2017-09-04T14:23:33.372Z,23.30
2017-09-04T14:26:02.721Z,23.20
2017-09-04T14:28:32.843Z,23.00
2017-09-04T14:31:02.173Z,22.80
2017-09-04T14:33:31.446Z,22.70
2017-09-04T14:36:00.711Z,22.80
2017-09-04T14:38:29.978Z,22.80
2017-09-04T14:44:08.514Z,22.60
2017-09-04T14:46:51.374Z,22.40
2017-09-04T14:49:20.762Z,22.20
2017-09-04T14:51:50.001Z,22.10
2017-09-04T14:54:19.262Z,22.10
2017-09-04T14:56:49.273Z,22.00
2017-09-04T14:59:18.522Z,21.90
2017-09-04T15:01:47.834Z,21.90
2017-09-04T15:04:17.107Z,21.80
2017-09-04T15:06:46.363Z,21.70
2017-09-04T15:09:15.608Z,21.70
2017-09-04T15:11:44.868Z,21.70
2017-09-04T15:14:14.110Z,21.80
2017-09-04T15:16:43.386Z,21.90
2017-09-04T15:19:12.837Z,21.80
2017-09-04T15:21:42.117Z,21.90
2017-09-04T15:24:11.346Z,22.00
2017-09-04T15:26:40.587Z,22.00
2017-09-04T15:29:09.878Z,21.90
2017-09-04T15:31:39.121Z,21.90
2017-09-04T15:34:08.376Z,21.90
2017-09-04T15:36:37.678Z,22.00
2017-09-04T15:39:06.923Z,22.10
2017-09-04T15:41:36.183Z,22.10
2017-09-04T15:44:05.427Z,22.20
2017-09-04T15:46:35.497Z,22.20
2017-09-04T15:49:04.731Z,22.30
2017-09-04T15:51:34.818Z,22.40
2017-09-04T15:54:04.273Z,22.30
2017-09-04T15:56:33.605Z,22.30
2017-09-04T15:59:02.911Z,22.40
2017-09-04T16:01:32.158Z,22.40
2017-09-04T16:04:01.650Z,22.40
2017-09-04T16:06:31.384Z,22.30
2017-09-04T16:09:00.617Z,22.10
2017-09-04T16:11:29.939Z,21.90
2017-09-04T16:14:00.203Z,21.90
2017-09-04T16:16:31.289Z,21.80
2017-09-04T16:19:03.088Z,21.80
2017-09-04T16:21:33.118Z,21.70
2017-09-04T16:24:18.110Z,21.70
2017-09-04T16:26:55.068Z,21.70
2017-09-04T16:29:25.510Z,21.80
2017-09-04T16:31:57.743Z,21.80
2017-09-04T16:34:42.796Z,21.90
2017-09-04T16:40:18.819Z,21.80
2017-09-04T16:42:58.878Z,21.80
2017-09-04T16:45:31.016Z,21.80
2017-09-04T16:51:07.271Z,21.50
2017-09-04T16:53:37.047Z,21.30
2017-09-04T16:56:06.301Z,21.20
2017-09-04T16:58:35.574Z,21.10
2017-09-04T17:01:04.846Z,21.10
2017-09-04T17:03:34.752Z,20.90
2017-09-04T17:06:04.090Z,20.60
2017-09-04T17:08:33.805Z,20.30
2017-09-04T17:11:03.069Z,20.30
2017-09-04T17:13:33.479Z,20.20
2017-09-04T17:16:02.770Z,20.00
2017-09-04T17:18:32.065Z,19.90
2017-09-04T17:21:16.189Z,19.80
2017-09-04T17:23:45.504Z,19.80
2017-09-04T17:26:14.734Z,19.70
2017-09-04T17:28:45.034Z,19.50
2017-09-04T17:31:14.301Z,19.40
2017-09-04T17:33:43.557Z,19.30
2017-09-04T17:36:12.821Z,19.10
2017-09-04T17:38:42.088Z,19.00
2017-09-04T17:41:11.377Z,18.90
2017-09-04T17:43:40.605Z,18.70
2017-09-04T17:46:09.857Z,18.60
2017-09-04T17:48:39.139Z,18.50
2017-09-04T17:51:08.491Z,18.50
2017-09-04T17:53:37.902Z,18.60
2017-09-04T17:56:07.248Z,18.40
2017-09-04T17:58:36.635Z,18.30
2017-09-04T18:01:05.890Z,18.10
2017-09-04T18:03:35.166Z,18.00
2017-09-04T18:06:04.425Z,18.00
2017-09-04T18:08:33.797Z,17.90
2017-09-04T18:11:03.046Z,17.80
2017-09-04T18:13:32.311Z,17.80
2017-09-04T18:16:01.555Z,17.80
2017-09-04T18:18:30.824Z,17.70
2017-09-04T18:21:00.075Z,17.70
2017-09-04T18:23:29.338Z,17.60
2017-09-04T18:25:58.620Z,17.40
2017-09-04T18:28:28.019Z,17.40
2017-09-04T18:30:57.300Z,17.40
2017-09-04T18:33:26.544Z,17.40
2017-09-04T18:35:55.888Z,17.40
2017-09-04T18:38:25.153Z,17.30
2017-09-04T18:40:54.435Z,17.30
2017-09-04T18:43:23.806Z,17.30
2017-09-04T18:45:53.339Z,17.20
2017-09-04T18:48:22.594Z,17.20
2017-09-04T18:50:51.946Z,17.00
2017-09-04T18:53:21.978Z,17.10
2017-09-04T18:55:51.676Z,17.10
2017-09-04T18:58:20.873Z,17.20
2017-09-04T19:00:50.175Z,17.20
2017-09-04T19:03:19.480Z,17.20
2017-09-04T19:05:48.746Z,17.30
2017-09-04T19:08:17.994Z,17.40
2017-09-04T19:10:47.293Z,17.40
2017-09-04T19:13:16.558Z,17.40
2017-09-04T19:15:45.814Z,17.40
2017-09-04T19:18:15.084Z,17.30
2017-09-04T19:20:44.352Z,17.20
2017-09-04T19:23:13.962Z,17.20
2017-09-04T19:25:43.496Z,17.10
2017-09-04T19:28:12.783Z,17.00
2017-09-04T19:30:42.026Z,16.90
2017-09-04T19:33:11.638Z,17.00
2017-09-04T19:35:41.108Z,16.90
2017-09-04T19:38:10.646Z,16.90
2017-09-04T19:40:39.866Z,16.80
2017-09-04T19:43:16.503Z,16.80
2017-09-04T19:45:45.755Z,16.80
2017-09-04T19:48:15.270Z,16.80
2017-09-04T19:50:44.537Z,16.80
2017-09-04T19:53:13.776Z,16.80
2017-09-04T19:55:43.068Z,16.70
2017-09-04T19:58:12.318Z,16.70
2017-09-04T20:00:41.735Z,16.60
2017-09-04T20:03:11.023Z,16.70
2017-09-04T20:05:40.281Z,16.70
2017-09-04T20:08:09.526Z,16.70
2017-09-04T20:10:38.813Z,16.60
2017-09-04T20:13:08.214Z,16.70
2017-09-04T20:15:37.475Z,16.70
2017-09-04T20:18:06.767Z,16.70
2017-09-04T20:20:36.099Z,16.70
2017-09-04T20:23:05.427Z,16.60
2017-09-04T20:25:34.699Z,16.60
2017-09-04T20:28:03.988Z,16.50
2017-09-04T20:30:33.341Z,16.60
2017-09-04T20:33:02.597Z,16.60
2017-09-04T20:35:31.850Z,16.50
2017-09-04T20:38:01.154Z,16.50
2017-09-04T20:40:30.437Z,16.50
2017-09-04T20:42:59.748Z,16.60
2017-09-04T20:45:29.002Z,16.60
2017-09-04T20:47:59.061Z,16.60
2017-09-04T20:50:28.339Z,16.70
2017-09-04T20:52:57.613Z,16.80
2017-09-04T20:55:26.861Z,16.90
2017-09-04T20:57:56.327Z,17.00
2017-09-04T21:00:25.567Z,17.00
2017-09-04T21:02:54.851Z,16.90
2017-09-04T21:05:24.166Z,16.70
2017-09-04T21:07:53.428Z,16.80
2017-09-04T21:10:22.705Z,16.80
2017-09-04T21:12:51.964Z,16.80
2017-09-04T21:15:21.285Z,16.90
2017-09-04T21:17:50.573Z,16.90
2017-09-04T21:20:19.822Z,16.90
2017-09-04T21:22:49.090Z,16.90
2017-09-04T21:25:18.409Z,17.00
2017-09-04T21:27:47.655Z,17.00
2017-09-04T21:30:16.939Z,17.00
2017-09-04T21:32:46.189Z,17.00
2017-09-04T21:35:16.177Z,17.00
2017-09-04T21:37:46.061Z,17.00
2017-09-04T21:40:15.307Z,17.00
2017-09-04T21:42:44.572Z,16.90
2017-09-04T21:45:13.850Z,16.80
2017-09-04T21:47:43.220Z,16.80
2017-09-04T21:50:12.530Z,16.90
2017-09-04T21:52:41.815Z,16.90
2017-09-04T21:55:11.085Z,16.80
2017-09-04T21:57:40.345Z,16.80
2017-09-04T22:00:09.621Z,16.90
2017-09-04T22:02:38.876Z,16.90
2017-09-04T22:05:08.201Z,16.90
2017-09-04T22:07:37.526Z,16.90
2017-09-04T22:10:06.779Z,16.90
2017-09-04T22:12:36.059Z,16.90
2017-09-04T22:15:05.877Z,16.90
2017-09-04T22:17:35.139Z,16.90
2017-09-04T22:20:04.645Z,16.90
2017-09-04T22:22:34.087Z,16.90
2017-09-04T22:25:03.491Z,16.80
2017-09-04T22:27:32.833Z,16.80
2017-09-04T22:30:02.077Z,16.80
2017-09-04T22:32:31.379Z,16.90
2017-09-04T22:35:00.730Z,16.90
2017-09-04T22:37:30.022Z,16.90
2017-09-04T22:39:59.298Z,16.90
2017-09-04T22:42:28.705Z,16.90
2017-09-04T22:44:57.983Z,17.00
2017-09-04T22:47:27.257Z,16.90
2017-09-04T22:49:56.520Z,16.90
2017-09-04T22:52:25.814Z,16.90
2017-09-04T22:54:55.055Z,16.90
2017-09-04T22:57:24.302Z,16.90
2017-09-04T22:59:53.601Z,16.90
2017-09-04T23:02:22.871Z,16.90
2017-09-04T23:04:52.109Z,16.90
2017-09-04T23:07:21.360Z,16.90
2017-09-04T23:09:50.656Z,16.90
2017-09-04T23:12:19.926Z,17.00
2017-09-04T23:14:49.191Z,17.00
2017-09-04T23:17:18.454Z,17.00
2017-09-04T23:19:47.680Z,17.00
2017-09-04T23:22:16.946Z,17.10
2017-09-04T23:24:46.210Z,17.00
2017-09-04T23:27:15.462Z,17.00
2017-09-04T23:29:44.833Z,17.10
2017-09-04T23:32:14.154Z,17.10
2017-09-04T23:34:43.414Z,17.00
2017-09-04T23:37:12.666Z,17.00
2017-09-04T23:39:41.913Z,17.10
2017-09-04T23:42:11.173Z,17.10
2017-09-04T23:44:40.440Z,17.20
2017-09-04T23:47:09.697Z,17.20
2017-09-04T23:49:39.014Z,17.10
2017-09-04T23:52:08.237Z,17.10
2017-09-04T23:54:37.629Z,17.10
2017-09-04T23:57:07.062Z,17.10
2017-09-04T23:59:36.378Z,17.10
